Pagrindinis puslapis
METAR-TAF:

METAR-TAF

Oro uostai :

Kitakiūšiū, Japonija

platuma: 33-50N, ilguma: 130-57E, Aukštis: 3 m

Dabartinis oras

Ataskaita buvo paskelbta 1 valandą ir 5 minutes, ne 00:00 UTC
Vėjas 8 kt iš Šiaurės Rytų
Temperatūra 12°C
Drėgmė 58%
Slėgis 1024 hPa
Matomumas 10 km arba daugiau
Mažai debesys ne aukštis 3000 ft
Su prošvaistėmis ne aukštis 7000 ft

METAR: RJFR 100000Z 04008KT 9999 FEW030 BKN070 12/04 Q1024

Laikas: 10:05 (01:05 UTC)

Prognozė

Ataskaita buvo paskelbta 1 valandą ir 56 minutes, ne 23:09 UTC
Prognozė galioja nuo 10 metu 00 UTC su 11 metu 06 UTC
Vėjas 8 kt iš Rytų/Šiaurės Rytų
Matomumas 10 km arba daugiau
Mažai debesys ne aukštis 3000 ft
Tapsmas
nuo 10 metu 07 UTC su 10 metu 09 UTC
Vėjas 11 kt iš Šiaurės
Tapsmas
nuo 10 metu 21 UTC su 11 metu 00 UTC
Vėjas 5 kt iš Rytų/Pietryčių

TAF: RJFR 092309Z 1000/1106 06008KT 9999 FEW030 BECMG 1007/1009 36011KT BECMG 1021/1100 12005KT

Orai ataskaitas ir orų prognozės (METAR, TAF).

turimą stotys yra geltonos ir raudonos taškus žemėlapyje.

Perkelti pele per norėdami pamatyti stoties vardą.

Tada spustelėkite, norėdami matyti oro stebėjimo ir prognozės.

Norėdami pakeisti žemėlapį: spustelėkite ant žalios mygtukų su juodo kryžiaus žemyn,; žalią mygtuką su brūkšneliu, jei norite nutolinti; arba žalių rodyklių gretimoms žemėlapius.


METAR-TAF: